createdAt,value
2019-04-29T00:05:57.625Z,26.23
2019-04-29T00:16:21.236Z,19.20
2019-04-29T00:26:27.554Z,18.47
2019-04-29T00:36:37.742Z,14.97
2019-04-29T00:46:43.397Z,21.17
2019-04-29T00:56:49.017Z,18.50
2019-04-29T01:06:54.756Z,17.40
2019-04-29T01:17:00.356Z,16.23
2019-04-29T01:27:10.698Z,18.23
2019-04-29T01:48:27.636Z,25.10
2019-04-29T01:58:33.231Z,22.70
2019-04-29T02:08:40.030Z,22.03
2019-04-29T02:18:45.562Z,21.40
2019-04-29T02:28:51.156Z,29.50
2019-04-29T02:39:04.357Z,26.50
2019-04-29T02:49:10.639Z,26.23
2019-04-29T02:59:34.324Z,18.83
2019-04-29T03:09:46.121Z,21.00
2019-04-29T03:20:10.145Z,22.93
2019-04-29T03:30:15.861Z,20.77
2019-04-29T03:40:21.660Z,21.00
2019-04-29T03:50:27.278Z,21.23
2019-04-29T04:00:32.965Z,17.50
2019-04-29T04:10:38.518Z,18.00
2019-04-29T04:20:44.129Z,17.60
2019-04-29T04:30:49.728Z,14.93
2019-04-29T04:40:56.926Z,15.70
2019-04-29T04:51:02.556Z,17.97
2019-04-29T05:01:08.237Z,12.47
2019-04-29T05:11:13.876Z,15.43
2019-04-29T05:21:19.435Z,15.77
2019-04-29T05:31:25.066Z,24.77
2019-04-29T05:41:34.912Z,17.87
2019-04-29T05:51:39.330Z,18.40
2019-04-29T06:01:47.346Z,22.33
2019-04-29T06:11:52.238Z,19.00
2019-04-29T06:21:57.876Z,23.80
2019-04-29T06:32:03.462Z,23.07
2019-04-29T06:42:09.004Z,29.47
2019-04-29T06:52:14.533Z,23.50
2019-04-29T07:02:20.020Z,32.43
2019-04-29T07:12:25.597Z,35.57
2019-04-29T07:22:31.297Z,31.90
2019-04-29T07:32:36.970Z,32.13
2019-04-29T07:42:42.597Z,23.70
2019-04-29T07:52:50.010Z,20.97
2019-04-29T08:02:55.316Z,28.50
2019-04-29T08:13:01.080Z,21.13
2019-04-29T08:23:06.703Z,22.60
2019-04-29T08:33:13.207Z,23.67
2019-04-29T08:43:36.871Z,24.80
2019-04-29T08:53:42.509Z,25.00
2019-04-29T09:03:48.157Z,21.03
2019-04-29T09:13:53.796Z,23.47
2019-04-29T09:23:59.413Z,26.40
2019-04-29T09:34:06.870Z,25.20
2019-04-29T09:44:35.307Z,28.30
2019-04-29T09:54:38.926Z,22.83
2019-04-29T10:04:56.370Z,25.40
2019-04-29T10:14:53.789Z,25.73
2019-04-29T10:24:59.517Z,30.30
2019-04-29T10:35:10.743Z,27.47
2019-04-29T10:45:28.823Z,24.90
2019-04-29T10:55:35.720Z,31.63
2019-04-29T11:05:59.962Z,37.37
2019-04-29T11:15:51.382Z,32.40
2019-04-29T11:26:04.303Z,26.83
2019-04-29T11:36:11.542Z,39.33
2019-04-29T11:46:17.236Z,46.23
2019-04-29T11:56:23.141Z,33.10
2019-04-29T12:06:30.151Z,33.93
2019-04-29T12:16:38.844Z,37.17
2019-04-29T12:26:44.600Z,32.60
2019-04-29T12:36:56.256Z,39.70
2019-04-29T12:47:08.316Z,35.30
2019-04-29T12:57:14.102Z,35.13
2019-04-29T13:07:27.108Z,36.33
2019-04-29T13:17:34.552Z,32.27
2019-04-29T13:27:40.380Z,39.63
2019-04-29T13:37:46.199Z,34.93
2019-04-29T13:47:53.811Z,41.57
2019-04-29T13:57:59.777Z,30.23
2019-04-29T14:08:05.632Z,30.63
2019-04-29T14:18:15.238Z,33.20
2019-04-29T14:28:20.851Z,37.70
2019-04-29T14:38:26.349Z,35.57
2019-04-29T14:48:42.571Z,29.70
2019-04-29T14:58:43.751Z,28.30
2019-04-29T15:08:50.937Z,27.23
2019-04-29T15:18:58.117Z,26.13
2019-04-29T15:29:03.817Z,30.57
2019-04-29T15:39:11.551Z,31.20
2019-04-29T15:49:20.180Z,46.97
2019-04-29T15:59:24.103Z,37.03
2019-04-29T16:19:38.492Z,35.47
2019-04-29T16:29:46.079Z,36.13
2019-04-29T16:39:52.831Z,28.27
2019-04-29T16:50:04.591Z,25.57
2019-04-29T17:00:14.751Z,24.63
2019-04-29T17:10:33.844Z,21.50
2019-04-29T17:20:46.325Z,33.53
2019-04-29T17:31:13.012Z,49.83
2019-04-29T17:35:15.560Z,40.97
2019-04-29T17:41:19.252Z,45.73
2019-04-29T17:51:36.183Z,51.30
2019-04-29T18:02:08.562Z,52.50
2019-04-29T18:12:24.917Z,48.87
2019-04-29T18:22:34.796Z,60.87
2019-04-29T18:32:42.209Z,66.00
2019-04-29T18:42:48.672Z,63.10
2019-04-29T18:52:56.048Z,53.23
2019-04-29T19:03:02.164Z,60.57
2019-04-29T19:13:12.728Z,55.33
2019-04-29T19:23:22.166Z,49.40
2019-04-29T19:33:25.200Z,45.33
2019-04-29T19:43:55.144Z,50.07
2019-04-29T19:54:02.738Z,45.43
2019-04-29T20:04:15.876Z,61.50
2019-04-29T20:14:27.871Z,64.17
2019-04-29T20:24:29.184Z,60.50
2019-04-29T20:34:36.098Z,61.20
2019-04-29T20:44:47.635Z,58.33
2019-04-29T20:54:57.504Z,50.93
2019-04-29T21:04:58.279Z,51.00
2019-04-29T21:15:18.078Z,41.73
2019-04-29T21:25:24.802Z,50.63
2019-04-29T21:35:57.946Z,45.97
2019-04-29T21:46:06.558Z,39.93
2019-04-29T21:56:12.315Z,51.97
2019-04-29T22:06:18.017Z,64.90
2019-04-29T22:16:25.128Z,53.67
2019-04-29T22:26:31.037Z,48.57
2019-04-29T22:36:36.718Z,51.47
2019-04-29T22:46:44.746Z,52.30
2019-04-29T22:56:53.697Z,47.57
2019-04-29T23:06:56.684Z,41.10
2019-04-29T23:17:06.160Z,35.87
2019-04-29T23:27:11.600Z,27.47
2019-04-29T23:37:19.519Z,22.60
2019-04-29T23:47:25.667Z,21.97
2019-04-29T23:57:41.738Z,18.33
